createdAt,value
2023-03-13T00:00:32.982Z,2.61
2023-03-13T00:01:32.982Z,2.72
2023-03-13T00:02:33.024Z,2.72
2023-03-13T00:03:32.974Z,2.83
2023-03-13T00:04:33.070Z,2.83
2023-03-13T00:05:32.981Z,2.72
2023-03-13T00:06:33.002Z,2.78
2023-03-13T00:07:32.972Z,3
2023-03-13T00:08:32.984Z,3
2023-03-13T00:09:33.057Z,2.61
2023-03-13T00:10:32.981Z,2.83
2023-03-13T00:11:32.961Z,2.67
2023-03-13T00:12:32.966Z,2.61
2023-03-13T00:13:32.992Z,2.89
2023-03-13T00:14:32.998Z,2.56
2023-03-13T00:15:32.985Z,3.17
2023-03-13T00:16:33.028Z,3.06
2023-03-13T00:17:33.049Z,3.06
2023-03-13T00:18:32.979Z,2.83
2023-03-13T00:19:32.984Z,2.61
2023-03-13T00:20:33.028Z,2.89
2023-03-13T00:21:33.000Z,2.83
2023-03-13T00:22:32.987Z,2.61
2023-03-13T00:23:32.993Z,3
2023-03-13T00:24:33.000Z,2.83
2023-03-13T00:25:33.040Z,3.11
2023-03-13T00:26:33.004Z,2.83
2023-03-13T00:27:32.989Z,2.78
2023-03-13T00:28:32.993Z,2.89
2023-03-13T00:29:33.010Z,2.89
2023-03-13T00:30:33.098Z,2.67
2023-03-13T00:31:33.095Z,2.78
2023-03-13T00:32:33.072Z,2.28
2023-03-13T00:33:33.013Z,2.78
2023-03-13T00:34:33.007Z,2.33
2023-03-13T00:35:33.050Z,2.78
2023-03-13T00:36:33.105Z,2.22
2023-03-13T00:37:33.013Z,2.78
2023-03-13T00:38:33.033Z,2.28
2023-03-13T00:39:33.030Z,2.67
2023-03-13T00:40:33.016Z,2.61
2023-03-13T00:41:33.003Z,2.72
2023-03-13T00:42:33.013Z,2.78
2023-03-13T00:43:33.009Z,2.44
2023-03-13T00:44:33.034Z,2.72
2023-03-13T00:45:33.023Z,2.39
2023-03-13T00:46:33.130Z,2.89
2023-03-13T00:47:33.025Z,3.06
2023-03-13T00:48:33.018Z,3
2023-03-13T00:49:33.030Z,3
2023-03-13T00:50:33.021Z,2.61
2023-03-13T00:51:33.019Z,2.78
2023-03-13T00:52:33.018Z,2.61
2023-03-13T00:53:33.030Z,3
2023-03-13T00:54:33.038Z,2.72
2023-03-13T00:55:33.019Z,2.33
2023-03-13T00:56:33.037Z,2.83
2023-03-13T00:57:33.027Z,2.78
2023-03-13T00:58:33.036Z,2.78
2023-03-13T00:59:33.042Z,2.83
2023-03-13T01:00:33.032Z,2.72
2023-03-13T01:01:33.042Z,2.72
2023-03-13T01:02:33.191Z,2.83
2023-03-13T01:03:33.052Z,2.83
2023-03-13T01:04:33.040Z,2.83
2023-03-13T01:05:33.053Z,2.78
2023-03-13T01:06:33.065Z,2.83
2023-03-13T01:07:33.055Z,2.83
2023-03-13T01:08:33.046Z,2.56
2023-03-13T01:09:33.076Z,2.83
2023-03-13T01:10:33.065Z,2.56
2023-03-13T01:11:33.084Z,2.72
2023-03-13T01:12:33.076Z,2.83
2023-03-13T01:13:33.073Z,2.72
2023-03-13T01:14:33.079Z,2.61
2023-03-13T01:15:33.116Z,2.56
2023-03-13T01:16:33.095Z,2.11
2023-03-13T01:17:33.069Z,2.61
2023-03-13T01:18:33.097Z,2.83
2023-03-13T01:19:33.071Z,2.39
2023-03-13T01:20:33.090Z,2.72
2023-03-13T01:21:33.100Z,2.72
2023-03-13T01:22:33.081Z,2.56
2023-03-13T01:23:33.088Z,2.72
2023-03-13T01:24:33.095Z,2.56
2023-03-13T01:25:33.095Z,2.39
2023-03-13T01:26:33.123Z,2.83
2023-03-13T01:27:33.101Z,2.33
2023-03-13T01:28:33.089Z,2.56
2023-03-13T01:29:33.088Z,2.28
2023-03-13T01:30:33.087Z,2.56
2023-03-13T01:31:33.140Z,2.56
2023-03-13T01:32:33.136Z,2.56
2023-03-13T01:33:33.098Z,2.56
2023-03-13T01:34:33.118Z,2.56
2023-03-13T01:35:33.176Z,2.56
2023-03-13T01:36:33.116Z,2.56
2023-03-13T01:37:33.108Z,2.11
2023-03-13T01:38:33.108Z,2.72
2023-03-13T01:39:33.099Z,2.39
2023-03-13T01:40:33.105Z,2.11
2023-03-13T01:41:33.116Z,2.39
2023-03-13T01:42:33.102Z,2.39
2023-03-13T01:43:33.134Z,2.39
2023-03-13T01:44:33.108Z,2.56
2023-03-13T01:45:33.108Z,2.56
2023-03-13T01:46:33.205Z,2.39
2023-03-13T01:47:33.130Z,2.72
2023-03-13T01:48:33.112Z,2.39
2023-03-13T01:49:33.128Z,2.11
2023-03-13T01:50:33.142Z,2.39
2023-03-13T01:51:33.114Z,2.39
2023-03-13T01:52:33.129Z,2.72
2023-03-13T01:53:33.130Z,2.56
2023-03-13T01:54:33.127Z,2.28
2023-03-13T01:55:33.127Z,2.28
2023-03-13T01:56:33.127Z,2.56
2023-03-13T01:57:33.133Z,2.39
2023-03-13T01:58:33.137Z,2.56
2023-03-13T01:59:33.136Z,2.28
2023-03-13T02:00:33.137Z,2.39
2023-03-13T02:01:33.166Z,2.28
2023-03-13T02:02:33.181Z,2.39
2023-03-13T02:03:33.132Z,2.28
2023-03-13T02:04:33.150Z,2
2023-03-13T02:05:33.144Z,2.39
2023-03-13T02:06:33.180Z,2.56
2023-03-13T02:07:33.159Z,2.28
2023-03-13T02:08:33.162Z,2.56
2023-03-13T02:09:33.177Z,2.39
2023-03-13T02:10:33.159Z,2.44
2023-03-13T02:11:33.151Z,2.28
2023-03-13T02:12:33.151Z,2.56
2023-03-13T02:13:33.149Z,2.39
2023-03-13T02:14:33.156Z,2.39
2023-03-13T02:15:33.178Z,2.39
2023-03-13T02:16:33.178Z,2.39
2023-03-13T02:17:33.192Z,2.39
2023-03-13T02:18:33.153Z,2.11
2023-03-13T02:19:33.155Z,2.33
2023-03-13T02:20:33.160Z,2.28
2023-03-13T02:21:33.176Z,2.28
2023-03-13T02:22:33.196Z,2.56
2023-03-13T02:23:33.212Z,2.17
2023-03-13T02:24:33.178Z,2.33
2023-03-13T02:25:33.156Z,2.39
2023-03-13T02:26:33.176Z,1.83
2023-03-13T02:27:33.211Z,2.39
2023-03-13T02:28:33.183Z,2.39
2023-03-13T02:29:33.276Z,2.56
2023-03-13T02:30:33.176Z,2.39
2023-03-13T02:31:33.264Z,2.28
2023-03-13T02:32:33.250Z,2.39
2023-03-13T02:33:33.170Z,2.56
2023-03-13T02:34:33.168Z,2.72
2023-03-13T02:35:33.257Z,2.28
2023-03-13T02:36:33.189Z,2.72
2023-03-13T02:37:33.177Z,2.39
2023-03-13T02:38:33.225Z,2.28
2023-03-13T02:39:33.177Z,2.28
2023-03-13T02:40:33.187Z,2.11
2023-03-13T02:41:33.174Z,2
2023-03-13T02:42:33.199Z,2.39
2023-03-13T02:43:33.182Z,2.39
2023-03-13T02:44:33.189Z,2.33
2023-03-13T02:45:33.183Z,2.39
2023-03-13T02:46:33.231Z,2.39
2023-03-13T02:47:33.190Z,2.28
2023-03-13T02:48:33.216Z,2.11
2023-03-13T02:49:33.194Z,2.39
2023-03-13T02:50:33.200Z,2
2023-03-13T02:51:33.192Z,2.56
2023-03-13T02:52:33.205Z,2.39
2023-03-13T02:53:33.208Z,2.33
2023-03-13T02:54:33.245Z,2.11
2023-03-13T02:55:33.203Z,2.39
2023-03-13T02:56:33.203Z,2.39
2023-03-13T02:57:33.194Z,2
2023-03-13T02:58:33.670Z,2.28
2023-03-13T02:59:33.217Z,2.11
2023-03-13T03:00:33.247Z,2.17
2023-03-13T03:01:33.209Z,2.39
2023-03-13T03:02:33.254Z,2.28
2023-03-13T03:03:33.234Z,2.11
2023-03-13T03:04:33.216Z,2
2023-03-13T03:05:33.216Z,2.28
2023-03-13T03:06:33.210Z,2.11
2023-03-13T03:07:33.204Z,2.11
2023-03-13T03:08:33.217Z,1.83
2023-03-13T03:09:33.215Z,1.83
2023-03-13T03:10:33.249Z,2.28
2023-03-13T03:11:33.220Z,2.11
2023-03-13T03:12:33.218Z,2
2023-03-13T03:13:33.232Z,2.11
2023-03-13T03:14:33.227Z,2.11
2023-03-13T03:15:33.227Z,2
2023-03-13T03:16:33.291Z,2
2023-03-13T03:17:33.227Z,1.89
2023-03-13T03:18:34.641Z,2
2023-03-13T03:19:33.216Z,2.11
2023-03-13T03:20:33.226Z,2.11
2023-03-13T03:21:33.220Z,2
2023-03-13T03:22:33.224Z,2
2023-03-13T03:23:33.219Z,1.78
2023-03-13T03:24:33.220Z,1.89
2023-03-13T03:25:33.228Z,2.11
2023-03-13T03:26:33.245Z,2
2023-03-13T03:27:33.226Z,2
2023-03-13T03:28:33.222Z,2
2023-03-13T03:29:33.229Z,2
2023-03-13T03:30:33.223Z,1.89
2023-03-13T03:31:33.282Z,2.11
2023-03-13T03:32:33.291Z,2
2023-03-13T03:33:33.254Z,1.83
2023-03-13T03:34:33.233Z,2
2023-03-13T03:35:33.247Z,1.78
2023-03-13T03:36:33.243Z,2.11
2023-03-13T03:37:33.237Z,2.11
2023-03-13T03:38:33.233Z,1.78
2023-03-13T03:39:33.229Z,1.89
2023-03-13T03:40:33.239Z,2
2023-03-13T03:41:33.233Z,2
2023-03-13T03:42:33.251Z,1.78
2023-03-13T03:43:33.233Z,1.89
2023-03-13T03:44:33.233Z,1.67
2023-03-13T03:45:33.256Z,2
2023-03-13T03:46:33.238Z,2
2023-03-13T03:47:33.248Z,2
2023-03-13T03:48:33.251Z,1.89
2023-03-13T03:49:33.240Z,2.06
2023-03-13T03:50:33.246Z,2
2023-03-13T03:51:33.256Z,1.89
2023-03-13T03:52:33.240Z,1.89
2023-03-13T03:53:33.245Z,2
2023-03-13T03:54:33.248Z,2
2023-03-13T03:55:35.090Z,1.83
2023-03-13T03:56:33.244Z,1.94
2023-03-13T03:57:33.267Z,1.83
2023-03-13T03:58:33.275Z,1.83
2023-03-13T03:59:33.251Z,1.89
2023-03-13T04:00:33.245Z,1.94
2023-03-13T04:01:33.260Z,1.72
2023-03-13T04:02:33.314Z,1.89
2023-03-13T04:03:33.289Z,1.83
2023-03-13T04:04:33.257Z,1.83
2023-03-13T04:05:33.256Z,1.78
2023-03-13T04:06:33.275Z,1.83
2023-03-13T04:07:33.264Z,1.67
2023-03-13T04:08:33.259Z,1.83
2023-03-13T04:09:33.251Z,2
2023-03-13T04:10:33.256Z,2
2023-03-13T04:11:33.258Z,1.83
2023-03-13T04:12:33.265Z,1.83
2023-03-13T04:13:33.293Z,1.89
2023-03-13T04:14:33.384Z,1.72
2023-03-13T04:15:33.253Z,1.83
2023-03-13T04:16:33.407Z,1.83
2023-03-13T04:17:33.270Z,1.67
2023-03-13T04:18:33.272Z,1.67
2023-03-13T04:19:33.267Z,2.11
2023-03-13T04:20:33.272Z,1.67
2023-03-13T04:21:33.265Z,1.67
2023-03-13T04:22:33.274Z,1.89
2023-03-13T04:23:33.266Z,1.72
2023-03-13T04:24:33.264Z,1.72
2023-03-13T04:25:33.264Z,1.72
2023-03-13T04:26:33.254Z,1.72
2023-03-13T04:27:33.274Z,1.72
2023-03-13T04:28:33.266Z,1.94
2023-03-13T04:29:33.265Z,1.94
2023-03-13T04:30:33.338Z,1.89
2023-03-13T04:31:33.262Z,1.72
2023-03-13T04:32:33.370Z,1.72
2023-03-13T04:33:33.269Z,1.94
2023-03-13T04:34:33.291Z,1.67
2023-03-13T04:35:33.414Z,1.89
2023-03-13T04:36:33.274Z,1.61
2023-03-13T04:37:33.268Z,1.78
2023-03-13T04:38:33.271Z,1.83
2023-03-13T04:39:33.324Z,1.83
2023-03-13T04:40:33.279Z,1.72
2023-03-13T04:41:33.265Z,1.72
2023-03-13T04:42:33.268Z,1.83
2023-03-13T04:43:33.261Z,1.72
2023-03-13T04:44:33.280Z,1.61
2023-03-13T04:45:33.278Z,1.72
2023-03-13T04:46:33.355Z,1.83
2023-03-13T04:47:33.281Z,1.72
2023-03-13T04:48:33.274Z,1.61
2023-03-13T04:49:33.273Z,1.72
2023-03-13T04:50:33.279Z,1.89
2023-03-13T04:51:33.286Z,1.89
2023-03-13T04:52:33.278Z,1.61
2023-03-13T04:53:33.284Z,1.72
2023-03-13T04:54:33.294Z,1.83
2023-03-13T04:55:33.290Z,1.89
2023-03-13T04:56:43.034Z,2
2023-03-13T04:57:33.292Z,1.72
2023-03-13T04:58:33.311Z,2
2023-03-13T04:59:33.291Z,1.94
2023-03-13T05:00:33.296Z,1.89
2023-03-13T05:01:33.320Z,1.72
2023-03-13T05:02:33.309Z,2.17
2023-03-13T05:03:33.293Z,1.89
2023-03-13T05:04:33.366Z,1.83
2023-03-13T05:05:33.369Z,1.94
2023-03-13T05:06:33.307Z,2.11
2023-03-13T05:07:33.307Z,2
2023-03-13T05:08:33.301Z,2.11
2023-03-13T05:09:33.334Z,1.89
2023-03-13T05:10:33.326Z,1.89
2023-03-13T05:11:33.320Z,2.11
2023-03-13T05:12:33.315Z,1.89
2023-03-13T05:13:33.317Z,1.61
2023-03-13T05:14:33.307Z,1.72
2023-03-13T05:15:33.355Z,1.72
2023-03-13T05:16:33.315Z,1.72
2023-03-13T05:17:33.326Z,2
2023-03-13T05:18:33.348Z,1.72
2023-03-13T05:19:33.324Z,1.72
2023-03-13T05:20:33.318Z,1.89
2023-03-13T05:21:33.325Z,1.72
2023-03-13T05:22:33.318Z,2
2023-03-13T05:23:33.330Z,2
2023-03-13T05:24:33.341Z,1.94
2023-03-13T05:25:33.324Z,1.72
2023-03-13T05:26:33.323Z,1.89
2023-03-13T05:27:33.338Z,1.72
2023-03-13T05:28:33.329Z,1.72
2023-03-13T05:29:33.337Z,1.83
2023-03-13T05:30:33.339Z,1.78
2023-03-13T05:31:33.403Z,1.67
2023-03-13T05:32:33.385Z,1.72
2023-03-13T05:33:33.340Z,1.72
2023-03-13T05:34:33.363Z,1.61
2023-03-13T05:35:33.366Z,1.89
2023-03-13T05:36:33.340Z,1.94
2023-03-13T05:37:33.343Z,1.94
2023-03-13T05:38:33.345Z,1.89
2023-03-13T05:39:33.343Z,1.72
2023-03-13T05:40:33.358Z,2.17
2023-03-13T05:41:33.368Z,2.17
2023-03-13T05:42:33.353Z,1.72
2023-03-13T05:43:33.356Z,1.72
2023-03-13T05:44:33.351Z,1.72
2023-03-13T05:45:33.354Z,1.72
2023-03-13T05:46:33.458Z,1.72
2023-03-13T05:47:33.351Z,1.94
2023-03-13T05:48:33.356Z,1.72
2023-03-13T05:49:33.350Z,1.72
2023-03-13T05:50:33.491Z,1.94
2023-03-13T05:51:33.351Z,1.89
2023-03-13T05:52:33.377Z,1.94
2023-03-13T05:53:33.364Z,2
2023-03-13T05:54:33.369Z,1.61
2023-03-13T05:55:33.365Z,1.83
2023-03-13T05:56:33.368Z,1.89
2023-03-13T05:57:33.372Z,2.11
2023-03-13T05:58:33.357Z,1.72
2023-03-13T05:59:33.368Z,1.89
2023-03-13T06:00:33.378Z,1.89
2023-03-13T06:01:33.403Z,2.11
2023-03-13T06:02:33.389Z,1.67
2023-03-13T06:03:33.476Z,1.72
2023-03-13T06:04:33.499Z,1.89
2023-03-13T06:05:33.392Z,2
2023-03-13T06:06:33.397Z,2.17
2023-03-13T06:07:33.386Z,1.72
2023-03-13T06:08:33.373Z,2
2023-03-13T06:09:33.365Z,1.89
2023-03-13T06:10:33.382Z,2
2023-03-13T06:11:33.371Z,2.17
2023-03-13T06:12:33.389Z,2
2023-03-13T06:13:33.383Z,2.17
2023-03-13T06:14:33.382Z,1.89
2023-03-13T06:15:33.386Z,2
2023-03-13T06:16:33.445Z,2.17
2023-03-13T06:17:33.387Z,2.17
2023-03-13T06:18:33.382Z,2
2023-03-13T06:19:33.381Z,2.17
2023-03-13T06:20:33.395Z,2.22
2023-03-13T06:21:33.396Z,2.22
2023-03-13T06:22:33.414Z,2
2023-03-13T06:23:33.391Z,2.17
2023-03-13T06:24:33.418Z,1.89
2023-03-13T06:25:33.403Z,2.11
2023-03-13T06:26:33.434Z,2
2023-03-13T06:27:33.413Z,2
2023-03-13T06:28:33.416Z,2.17
2023-03-13T06:29:33.398Z,2.28
2023-03-13T06:30:33.396Z,2.22
2023-03-13T06:31:33.490Z,2.17
2023-03-13T06:32:33.520Z,2.22
2023-03-13T06:33:33.409Z,2.61
2023-03-13T06:34:33.412Z,2.67
2023-03-13T06:35:37.123Z,2.44
2023-03-13T06:36:33.564Z,2.28
2023-03-13T06:37:33.417Z,2.44
2023-03-13T06:38:33.433Z,2.28
2023-03-13T06:39:33.411Z,2.44
2023-03-13T06:40:33.425Z,2.61
2023-03-13T06:41:33.471Z,2.61
2023-03-13T06:42:33.423Z,2.61
2023-03-13T06:43:33.429Z,2.61
2023-03-13T06:44:33.433Z,2.61
2023-03-13T06:45:33.437Z,2.72
2023-03-13T06:46:33.617Z,2.28
2023-03-13T06:47:33.424Z,2.89
2023-03-13T06:48:33.426Z,2.61
2023-03-13T06:49:33.435Z,2.61
2023-03-13T06:50:33.435Z,2.67
2023-03-13T06:51:33.431Z,2.72
2023-03-13T06:52:42.979Z,2.61
2023-03-13T06:53:33.436Z,2.67
2023-03-13T06:54:33.454Z,2.61
2023-03-13T06:55:33.431Z,2.28
2023-03-13T06:56:33.437Z,2.44
2023-03-13T06:57:33.435Z,2.44
2023-03-13T06:58:33.442Z,2.56
2023-03-13T06:59:33.445Z,2.72
2023-03-13T07:00:33.451Z,2.39
2023-03-13T07:01:33.443Z,2.44
2023-03-13T07:02:33.453Z,2.17
2023-03-13T07:03:33.507Z,2.61
2023-03-13T07:04:33.454Z,2.61
2023-03-13T07:05:33.443Z,2.44
2023-03-13T07:06:33.518Z,2.61
2023-03-13T07:07:33.474Z,2.22
2023-03-13T07:08:33.476Z,2.28
2023-03-13T07:09:33.472Z,2.61
2023-03-13T07:10:33.494Z,2.61
2023-03-13T07:11:33.465Z,2.61
2023-03-13T07:12:33.475Z,2.72
2023-03-13T07:13:33.470Z,2.61
2023-03-13T07:14:33.467Z,2.61
2023-03-13T07:15:33.477Z,2.56
2023-03-13T07:16:33.546Z,3
2023-03-13T07:17:33.547Z,2.61
2023-03-13T07:18:33.479Z,2.72
2023-03-13T07:19:33.475Z,3
2023-03-13T07:20:33.548Z,2.89
2023-03-13T07:21:33.505Z,3.28
2023-03-13T07:22:33.475Z,3.17
2023-03-13T07:23:33.482Z,3
2023-03-13T07:24:33.526Z,2.61
2023-03-13T07:25:33.501Z,3.33
2023-03-13T07:26:33.606Z,3
2023-03-13T07:27:33.497Z,3.33
2023-03-13T07:28:35.061Z,3.5
2023-03-13T07:29:33.493Z,3.33
2023-03-13T07:30:33.486Z,3.44
2023-03-13T07:31:33.573Z,3.72
2023-03-13T07:32:33.478Z,3.56
2023-03-13T07:33:33.503Z,4
2023-03-13T07:34:33.515Z,3.72
2023-03-13T07:35:33.507Z,3.83
2023-03-13T07:36:33.532Z,3.83
2023-03-13T07:37:33.488Z,3.83
2023-03-13T07:38:33.495Z,3.83
2023-03-13T07:39:33.500Z,4
2023-03-13T07:40:33.520Z,4.17
2023-03-13T07:41:33.493Z,3.83
2023-03-13T07:42:33.514Z,4.17
2023-03-13T07:43:33.492Z,3.83
2023-03-13T07:44:33.495Z,4.17
2023-03-13T07:45:33.542Z,4.28
2023-03-13T07:46:33.500Z,4.28
2023-03-13T07:47:33.505Z,4.28
2023-03-13T07:48:33.520Z,4.28
2023-03-13T07:49:33.508Z,4.44
2023-03-13T07:50:33.587Z,4.56
2023-03-13T07:51:43.287Z,4.72
2023-03-13T07:52:33.523Z,4.44
2023-03-13T07:53:33.567Z,4.56
2023-03-13T07:54:33.554Z,4.28
2023-03-13T07:55:33.511Z,4
2023-03-13T07:56:33.512Z,4.28
2023-03-13T07:57:33.544Z,4.28
2023-03-13T07:58:33.620Z,4.72
2023-03-13T07:59:33.560Z,5
2023-03-13T08:00:33.510Z,5
2023-03-13T08:01:33.515Z,5.17
2023-03-13T08:02:33.586Z,4.89
2023-03-13T08:03:33.559Z,5
2023-03-13T08:04:33.527Z,5.17
2023-03-13T08:05:33.535Z,5.33
2023-03-13T08:06:34.316Z,5.72
2023-03-13T08:07:33.526Z,5.83
2023-03-13T08:08:33.533Z,6
2023-03-13T08:09:33.519Z,6.11
2023-03-13T08:10:33.526Z,6
2023-03-13T08:11:33.519Z,5.83
2023-03-13T08:12:33.540Z,5.44
2023-03-13T08:13:33.510Z,5.17
2023-03-13T08:14:33.569Z,5.61
2023-03-13T08:15:33.558Z,5.44
2023-03-13T08:16:33.586Z,5.17
2023-03-13T08:17:33.515Z,5.44
2023-03-13T08:18:33.537Z,5.44
2023-03-13T08:19:33.541Z,5.72
2023-03-13T08:20:33.528Z,5.72
2023-03-13T08:21:33.518Z,6
2023-03-13T08:22:33.510Z,5.44
2023-03-13T08:23:33.545Z,5.61
2023-03-13T08:24:33.528Z,6
2023-03-13T08:25:33.520Z,5.83
2023-03-13T08:26:33.519Z,5.83
2023-03-13T08:27:33.528Z,6.72
2023-03-13T08:28:33.533Z,6.83
2023-03-13T08:29:33.553Z,7.28
2023-03-13T08:30:33.612Z,7.28
2023-03-13T08:31:33.534Z,7.28
2023-03-13T08:32:33.576Z,6.83
2023-03-13T08:33:33.521Z,6.56
2023-03-13T08:34:33.528Z,6.83
2023-03-13T08:35:33.670Z,6.83
2023-03-13T08:36:33.533Z,7.17
2023-03-13T08:37:33.525Z,6.39
2023-03-13T08:38:33.536Z,6.22
2023-03-13T08:39:33.536Z,6.72
2023-03-13T08:40:33.552Z,6.83
2023-03-13T08:41:33.538Z,6.56
2023-03-13T08:42:33.529Z,6.72
2023-03-13T08:43:33.549Z,6.83
2023-03-13T08:44:33.543Z,6.56
2023-03-13T08:45:33.539Z,6.28
2023-03-13T08:46:33.613Z,6.39
2023-03-13T08:47:33.537Z,6.56
2023-03-13T08:48:33.546Z,6.56
2023-03-13T08:49:33.556Z,6.67
2023-03-13T08:50:33.541Z,6.39
2023-03-13T08:51:33.545Z,6.22
2023-03-13T08:52:33.547Z,6.06
2023-03-13T08:53:33.562Z,6.5
2023-03-13T08:54:33.548Z,5.67
2023-03-13T08:55:33.560Z,5.78
2023-03-13T08:56:33.569Z,5.78
2023-03-13T08:57:33.560Z,5.94
2023-03-13T08:58:33.556Z,6.22
2023-03-13T08:59:33.552Z,5.94
2023-03-13T09:00:33.568Z,6.06
2023-03-13T09:01:33.555Z,6.06
2023-03-13T09:02:33.605Z,5.78
2023-03-13T09:03:33.631Z,5.94
2023-03-13T09:04:33.562Z,5.56
2023-03-13T09:05:38.589Z,5.78
2023-03-13T09:06:33.563Z,5.67
2023-03-13T09:07:33.560Z,5.78
2023-03-13T09:08:33.580Z,6.22
2023-03-13T09:09:33.573Z,5.78
2023-03-13T09:10:33.566Z,6.67
2023-03-13T09:11:33.554Z,6.67
2023-03-13T09:12:33.573Z,6.78
2023-03-13T09:13:33.564Z,6.78
2023-03-13T09:14:35.786Z,7.39
2023-03-13T09:15:33.582Z,7.11
2023-03-13T09:16:33.578Z,6.78
2023-03-13T09:17:33.557Z,7.11
2023-03-13T09:18:33.680Z,7.11
2023-03-13T09:19:33.563Z,6.78
2023-03-13T09:20:33.570Z,7.67
2023-03-13T09:21:33.576Z,7.78
2023-03-13T09:22:33.568Z,7.5
2023-03-13T09:23:33.584Z,7.78
2023-03-13T09:24:33.559Z,7.11
2023-03-13T09:25:33.564Z,7.39
2023-03-13T09:26:33.583Z,7.11
2023-03-13T09:27:33.585Z,7.5
2023-03-13T09:28:33.568Z,7.22
2023-03-13T09:29:33.591Z,6.94
2023-03-13T09:30:33.565Z,6.5
2023-03-13T09:31:33.645Z,6.78
2023-03-13T09:32:33.652Z,7.67
2023-03-13T09:33:33.567Z,8.28
2023-03-13T09:34:33.596Z,9.06
2023-03-13T09:35:33.588Z,7.22
2023-03-13T09:36:33.583Z,7.11
2023-03-13T09:37:33.568Z,6.67
2023-03-13T09:38:33.572Z,6.94
2023-03-13T09:39:33.578Z,6.78
2023-03-13T09:40:33.581Z,7.22
2023-03-13T09:41:33.572Z,7.22
2023-03-13T09:42:33.595Z,7.11
2023-03-13T09:43:33.575Z,6.67
2023-03-13T09:44:33.565Z,6.39
2023-03-13T09:45:33.572Z,6.67
2023-03-13T09:46:33.607Z,6.78
2023-03-13T09:47:33.577Z,6.94
2023-03-13T09:48:33.576Z,6.78
2023-03-13T09:49:33.587Z,6.78
2023-03-13T09:50:33.608Z,6.78
2023-03-13T09:51:33.582Z,6.94
2023-03-13T09:52:33.579Z,7.22
2023-03-13T09:53:33.568Z,7.5
2023-03-13T09:54:33.575Z,7.67
2023-03-13T09:55:33.585Z,7.94
2023-03-13T09:56:33.571Z,8.39
2023-03-13T09:57:33.617Z,8.39
2023-03-13T09:58:33.580Z,8.28
2023-03-13T09:59:33.585Z,8.39
2023-03-13T10:00:33.558Z,8.39
2023-03-13T10:01:33.602Z,8.11
2023-03-13T10:02:33.584Z,8.61
2023-03-13T10:03:33.583Z,8.78
2023-03-13T10:04:33.646Z,8.78
2023-03-13T10:05:33.587Z,8.94
2023-03-13T10:06:33.624Z,8.94
2023-03-13T10:07:33.584Z,8.61
2023-03-13T10:08:33.591Z,8.78
2023-03-13T10:09:33.585Z,8.5
2023-03-13T10:10:33.629Z,8.78
2023-03-13T10:11:33.616Z,8.39
2023-03-13T10:12:33.582Z,7.67
2023-03-13T10:13:33.608Z,7.5
2023-03-13T10:14:33.590Z,7.94
2023-03-13T10:15:33.597Z,7.94
2023-03-13T10:16:33.663Z,7.94
2023-03-13T10:17:33.624Z,8.5
2023-03-13T10:18:33.588Z,8.78
2023-03-13T10:19:33.601Z,8.78
2023-03-13T10:20:33.588Z,8.78
2023-03-13T10:21:33.603Z,8.94
2023-03-13T10:22:33.633Z,8.61
2023-03-13T10:23:33.602Z,8.28
2023-03-13T10:24:33.601Z,8.39
2023-03-13T10:25:33.606Z,8.78
2023-03-13T10:26:33.595Z,8.5
2023-03-13T10:27:33.603Z,8.39
2023-03-13T10:28:33.596Z,8.39
2023-03-13T10:29:33.591Z,8.94
2023-03-13T10:30:33.593Z,9.22
2023-03-13T10:31:33.660Z,9.22
2023-03-13T10:32:33.665Z,9.22
2023-03-13T10:33:33.602Z,8.61
2023-03-13T10:34:33.606Z,9.22
2023-03-13T10:35:33.743Z,8.61
2023-03-13T10:36:33.608Z,8.39
2023-03-13T10:37:33.596Z,8.78
2023-03-13T10:38:33.639Z,9.06
2023-03-13T10:39:33.600Z,9.22
2023-03-13T10:40:33.625Z,9.06
2023-03-13T10:41:33.599Z,9.22
2023-03-13T10:42:33.599Z,9.06
2023-03-13T10:43:33.618Z,8.28
2023-03-13T10:44:33.644Z,7.78
2023-03-13T10:45:33.596Z,7.78
2023-03-13T10:46:33.618Z,7.22
2023-03-13T10:47:33.604Z,7.22
2023-03-13T10:48:33.608Z,7.39
2023-03-13T10:49:33.617Z,7.67
2023-03-13T10:50:33.600Z,7.5
2023-03-13T10:51:33.618Z,8.11
2023-03-13T10:52:33.602Z,7.5
2023-03-13T10:53:33.635Z,7.11
2023-03-13T10:54:33.631Z,6.67
2023-03-13T10:55:33.613Z,7.11
2023-03-13T10:56:33.617Z,6.67
2023-03-13T10:57:33.615Z,6.94
2023-03-13T10:58:33.620Z,7.22
2023-03-13T10:59:33.635Z,7.5
2023-03-13T11:00:33.615Z,7.22
2023-03-13T11:01:33.619Z,7.11
2023-03-13T11:02:33.704Z,7.11
2023-03-13T11:03:33.854Z,6.78
2023-03-13T11:04:33.626Z,6.67
2023-03-13T11:05:33.612Z,6.39
2023-03-13T11:06:33.618Z,6.78
2023-03-13T11:07:33.609Z,6.78
2023-03-13T11:08:33.674Z,6.78
2023-03-13T11:09:33.608Z,7.39
2023-03-13T11:10:33.641Z,7.22
2023-03-13T11:11:33.603Z,7.39
2023-03-13T11:12:33.641Z,7.11
2023-03-13T11:13:37.186Z,6.94
2023-03-13T11:14:33.623Z,6.94
2023-03-13T11:15:33.604Z,6.78
2023-03-13T11:16:33.724Z,7.11
2023-03-13T11:17:33.627Z,7.22
2023-03-13T11:18:33.621Z,7.5
2023-03-13T11:19:33.650Z,7.94
2023-03-13T11:20:33.621Z,7.78
2023-03-13T11:21:33.632Z,8.28
2023-03-13T11:22:33.637Z,8.11
2023-03-13T11:23:33.636Z,8.39
2023-03-13T11:24:33.629Z,8.39
2023-03-13T11:25:33.621Z,8.78
2023-03-13T11:26:33.670Z,8.78
2023-03-13T11:27:33.684Z,8.94
2023-03-13T11:28:33.623Z,8.61
2023-03-13T11:29:33.711Z,9.22
2023-03-13T11:30:33.636Z,9.22
2023-03-13T11:31:33.684Z,9.22
2023-03-13T11:32:33.673Z,8.94
2023-03-13T11:33:33.635Z,9.22
2023-03-13T11:34:33.625Z,9.39
2023-03-13T11:35:33.669Z,9.67
2023-03-13T11:36:33.648Z,9.94
2023-03-13T11:37:33.628Z,9.67
2023-03-13T11:38:33.639Z,9.39
2023-03-13T11:39:33.648Z,9.5
2023-03-13T11:40:33.639Z,9.22
2023-03-13T11:41:33.676Z,9.5
2023-03-13T11:42:33.656Z,9.67
2023-03-13T11:43:33.635Z,9.94
2023-03-13T11:44:33.634Z,10.11
2023-03-13T11:45:33.694Z,9.67
2023-03-13T11:46:33.787Z,9.5
2023-03-13T11:47:33.641Z,9.22
2023-03-13T11:48:33.619Z,9.39
2023-03-13T11:49:33.622Z,9.67
2023-03-13T11:50:33.636Z,8.94
2023-03-13T11:51:33.715Z,8.78
2023-03-13T11:52:33.645Z,8.78
2023-03-13T11:53:33.630Z,9.22
2023-03-13T11:54:33.656Z,9.67
2023-03-13T11:55:33.636Z,9.67
2023-03-13T11:56:33.639Z,9.67
2023-03-13T11:57:33.626Z,9.94
2023-03-13T11:58:33.661Z,10.11
2023-03-13T11:59:33.629Z,10.67
2023-03-13T12:00:33.653Z,10.67
2023-03-13T12:01:33.636Z,10.22
2023-03-13T12:02:33.831Z,9.67
2023-03-13T12:03:33.709Z,9.39
2023-03-13T12:04:33.658Z,9.06
2023-03-13T12:05:33.715Z,9.06
2023-03-13T12:06:33.663Z,8.94
2023-03-13T12:07:33.635Z,9.39
2023-03-13T12:08:33.636Z,9.78
2023-03-13T12:09:33.659Z,9.67
2023-03-13T12:10:33.634Z,9.67
2023-03-13T12:11:33.639Z,9.78
2023-03-13T12:12:33.652Z,9.78
2023-03-13T12:13:33.656Z,10.11
2023-03-13T12:14:33.678Z,9.78
2023-03-13T12:15:33.686Z,10.11
2023-03-13T12:16:33.711Z,10.83
2023-03-13T12:17:33.707Z,11.28
2023-03-13T12:18:33.681Z,11.44
2023-03-13T12:19:33.649Z,11.44
2023-03-13T12:20:33.647Z,11.44
2023-03-13T12:21:33.688Z,11.44
2023-03-13T12:22:33.643Z,11.61
2023-03-13T12:23:33.673Z,11.28
2023-03-13T12:24:33.644Z,10.39
2023-03-13T12:25:33.852Z,10.17
2023-03-13T12:26:33.646Z,10.11
2023-03-13T12:27:33.685Z,10.17
2023-03-13T12:28:33.725Z,9.89
2023-03-13T12:29:33.657Z,9.89
2023-03-13T12:30:33.746Z,9.89
2023-03-13T12:31:33.651Z,10.61
2023-03-13T12:32:33.728Z,11.28
2023-03-13T12:33:33.660Z,10.89
2023-03-13T12:34:33.664Z,10
2023-03-13T12:35:33.647Z,10
2023-03-13T12:36:33.662Z,9.89
2023-03-13T12:37:33.672Z,9.72
2023-03-13T12:38:33.661Z,10.33
2023-03-13T12:39:33.687Z,10.17
2023-03-13T12:40:33.692Z,10.33
2023-03-13T12:41:33.685Z,10.89
2023-03-13T12:42:33.664Z,10.72
2023-03-13T12:43:33.675Z,11.33
2023-03-13T12:44:33.669Z,10.72
2023-03-13T12:45:33.720Z,10.89
2023-03-13T12:46:33.824Z,11.06
2023-03-13T12:47:33.687Z,11.78
2023-03-13T12:48:33.713Z,10.89
2023-03-13T12:49:33.667Z,10.61
2023-03-13T12:50:33.687Z,10.33
2023-03-13T12:51:33.709Z,10.72
2023-03-13T12:52:33.686Z,10.72
2023-03-13T12:53:33.711Z,11.17
2023-03-13T12:54:33.675Z,11.61
2023-03-13T12:55:33.690Z,11.33
2023-03-13T12:56:33.719Z,11.17
2023-03-13T12:57:33.739Z,11.17
2023-03-13T12:58:33.703Z,10.72
2023-03-13T12:59:33.685Z,11.33
2023-03-13T13:00:33.691Z,12.17
2023-03-13T13:01:33.777Z,12.33
2023-03-13T13:02:33.712Z,11.89
2023-03-13T13:03:33.745Z,12
2023-03-13T13:04:33.753Z,11.78
2023-03-13T13:05:33.694Z,12.33
2023-03-13T13:06:33.712Z,12.61
2023-03-13T13:07:33.694Z,12.5
2023-03-13T13:08:33.717Z,12.5
2023-03-13T13:09:33.711Z,13.22
2023-03-13T13:10:33.687Z,12.94
2023-03-13T13:11:33.718Z,13.83
2023-03-13T13:12:33.694Z,13.67
2023-03-13T13:13:33.690Z,13.56
2023-03-13T13:14:33.695Z,13.83
2023-03-13T13:15:33.836Z,13.22
2023-03-13T13:16:33.694Z,12.61
2023-03-13T13:17:33.722Z,13.11
2023-03-13T13:18:33.731Z,12.61
2023-03-13T13:19:33.709Z,13.56
2023-03-13T13:20:33.704Z,13.39
2023-03-13T13:21:33.717Z,13.56
2023-03-13T13:22:33.746Z,13.39
2023-03-13T13:23:33.836Z,12.94